Time;durP1;ratioP1;P1;durP2;ratioP2;P2;SDS_P1;SDS_P2;PMS_P1;PMS_P2;Temp;Humidity;BMP_temperature;BMP_pressure;BME280_temperature;BME280_humidity;BME280_pressure;Samples;Min_cycle;Max_cycle;Signal;HPM_P1;HPM_P2
2023/03/03 00:01:34;;;;;;;0.70;0.70;;;2.50;99.90;;;;;;5062914;28;20056;-77
2023/03/03 00:04:00;;;;;;;0.70;0.70;;;2.40;99.90;;;;;;5068212;28;20097;-76
2023/03/03 00:06:26;;;;;;;0.80;0.80;;;2.40;99.90;;;;;;5059513;28;20068;-77
2023/03/03 00:08:52;;;;;;;0.70;0.70;;;2.60;99.90;;;;;;5063728;28;20039;-77
2023/03/03 00:11:18;;;;;;;0.70;0.70;;;2.60;99.90;;;;;;5063170;28;20094;-77
2023/03/03 00:13:52;;;;;;;0.70;0.70;;;2.60;99.90;;;;;;5069569;28;20479;-77
2023/03/03 00:16:26;;;;;;;0.70;0.70;;;2.70;99.90;;;;;;5066086;28;20048;-77
2023/03/03 00:18:53;;;;;;;0.70;0.70;;;2.60;99.90;;;;;;5063902;28;20059;-77
2023/03/03 00:21:30;;;;;;;0.80;0.80;;;2.70;99.90;;;;;;5066253;28;20053;-77
2023/03/03 00:24:17;;;;;;;0.70;0.70;;;2.60;99.90;;;;;;5043983;28;20359;-77
2023/03/03 00:26:56;;;;;;;0.70;0.70;;;2.50;99.90;;;;;;5050800;28;20098;-77
2023/03/03 00:29:36;;;;;;;0.70;0.70;;;2.70;99.90;;;;;;5060763;28;20168;-77
2023/03/03 00:32:11;;;;;;;0.70;0.70;;;2.70;99.90;;;;;;5062589;28;20427;-76
2023/03/03 00:34:36;;;;;;;0.80;0.80;;;2.50;99.90;;;;;;5065764;28;20056;-77
2023/03/03 00:37:11;;;;;;;0.70;0.70;;;2.70;99.90;;;;;;5064739;28;20059;-77
2023/03/03 00:39:38;;;;;;;0.80;0.80;;;2.60;99.90;;;;;;5062617;28;20642;-77
2023/03/03 00:42:16;;;;;;;3.33;2.78;;;2.50;99.90;;;;;;5065854;28;20087;-77
2023/03/03 00:44:59;;;;;;;0.70;0.70;;;2.60;99.90;;;;;;5065130;28;20064;-77
2023/03/03 00:47:27;;;;;;;0.70;0.70;;;2.70;99.90;;;;;;5063071;28;20059;-77
2023/03/03 00:49:59;;;;;;;0.70;0.70;;;2.60;99.90;;;;;;5075045;28;20574;-77
2023/03/03 00:52:28;;;;;;;0.70;0.70;;;2.70;99.90;;;;;;5076375;28;20056;-77
2023/03/03 00:54:53;;;;;;;0.80;0.80;;;2.70;99.90;;;;;;5076407;28;20044;-77
2023/03/03 00:57:19;;;;;;;0.70;0.70;;;2.60;99.90;;;;;;5072963;28;20779;-77
2023/03/03 00:59:45;;;;;;;0.70;0.70;;;2.50;99.90;;;;;;5068574;28;20048;-77
2023/03/03 01:02:10;;;;;;;0.70;0.70;;;2.70;99.90;;;;;;5080052;28;20040;-77
2023/03/03 01:04:36;;;;;;;0.73;0.73;;;2.50;99.90;;;;;;5076946;28;20047;-77
2023/03/03 01:07:02;;;;;;;0.70;0.70;;;2.70;99.90;;;;;;5074812;28;20047;-77
2023/03/03 01:09:28;;;;;;;0.80;0.80;;;2.70;99.90;;;;;;5072831;28;20856;-77
2023/03/03 01:11:54;;;;;;;0.70;0.70;;;2.60;99.90;;;;;;5080438;28;20079;-77
2023/03/03 01:14:20;;;;;;;0.70;0.70;;;2.70;99.90;;;;;;5072288;28;20494;-77
2023/03/03 01:16:45;;;;;;;0.70;0.70;;;2.70;99.90;;;;;;5061949;28;20044;-77
2023/03/03 01:19:11;;;;;;;0.80;0.80;;;2.60;99.90;;;;;;5064669;28;20716;-77
2023/03/03 01:21:38;;;;;;;0.70;0.70;;;2.60;99.90;;;;;;5046739;28;20048;-77
2023/03/03 01:24:04;;;;;;;0.70;0.70;;;2.50;99.90;;;;;;5066793;28;20048;-77
2023/03/03 01:26:30;;;;;;;0.70;0.70;;;2.50;99.90;;;;;;5064117;28;20055;-77
2023/03/03 01:28:56;;;;;;;0.80;0.80;;;2.40;99.90;;;;;;5059317;28;20611;-77
2023/03/03 01:31:21;;;;;;;0.70;0.70;;;2.60;99.90;;;;;;5061235;28;20058;-77
2023/03/03 01:33:47;;;;;;;0.70;0.70;;;2.60;99.90;;;;;;5066750;28;20441;-77
2023/03/03 01:36:13;;;;;;;0.70;0.70;;;2.60;99.90;;;;;;5061938;28;20040;-76
2023/03/03 01:38:42;;;;;;;0.70;0.70;;;2.60;99.90;;;;;;5062722;28;20048;-77
2023/03/03 01:41:07;;;;;;;0.70;0.70;;;2.50;99.90;;;;;;5064249;28;20116;-77
2023/03/03 01:43:33;;;;;;;0.80;0.80;;;2.50;99.90;;;;;;5063978;28;20416;-77
2023/03/03 01:45:59;;;;;;;0.80;0.80;;;2.40;99.90;;;;;;5059256;28;20545;-77
2023/03/03 01:48:27;;;;;;;0.80;0.80;;;2.50;99.90;;;;;;5063380;28;20052;-77
2023/03/03 01:51:16;;;;;;;0.80;0.80;;;2.50;99.90;;;;;;5056876;28;20511;-77
2023/03/03 01:53:46;;;;;;;0.70;0.70;;;2.40;99.90;;;;;;5056598;28;20086;-77
2023/03/03 01:56:13;;;;;;;0.70;0.70;;;2.60;99.90;;;;;;5057005;28;20680;-77
2023/03/03 01:59:13;;;;;;;0.70;0.70;;;2.50;99.90;;;;;;5059836;28;20044;-77
2023/03/03 02:01:40;;;;;;;0.70;0.70;;;2.30;99.90;;;;;;5039411;28;20497;-77
2023/03/03 02:04:07;;;;;;;0.70;0.70;;;2.50;99.90;;;;;;5060551;28;20079;-77
2023/03/03 02:06:37;;;;;;;0.70;0.70;;;2.40;99.90;;;;;;5059500;28;20063;-77
2023/03/03 02:09:09;;;;;;;0.70;0.70;;;2.60;99.90;;;;;;5065440;28;20044;-77
2023/03/03 02:11:39;;;;;;;0.70;0.70;;;2.30;99.90;;;;;;5063157;28;20467;-77
2023/03/03 02:14:04;;;;;;;0.70;0.70;;;2.40;99.90;;;;;;5063229;28;20763;-77
2023/03/03 02:16:30;;;;;;;0.70;0.70;;;2.70;99.90;;;;;;5061129;28;20056;-76
2023/03/03 02:18:56;;;;;;;0.70;0.70;;;2.50;99.90;;;;;;5063384;28;20133;-77
2023/03/03 02:21:26;;;;;;;0.70;0.70;;;2.60;99.90;;;;;;5060759;28;20044;-77
2023/03/03 02:24:05;;;;;;;0.75;0.75;;;2.70;99.90;;;;;;5066321;28;20044;-77
2023/03/03 02:26:35;;;;;;;0.70;0.70;;;2.60;99.90;;;;;;5059799;28;20067;-77
2023/03/03 02:29:01;;;;;;;0.75;0.75;;;2.60;99.90;;;;;;5060789;28;20852;-77
2023/03/03 02:31:29;;;;;;;0.70;0.70;;;2.70;99.90;;;;;;5065575;28;20048;-77
2023/03/03 02:33:55;;;;;;;0.80;0.80;;;2.60;99.90;;;;;;5053609;28;20144;-77
2023/03/03 02:36:33;;;;;;;0.70;0.70;;;2.60;99.90;;;;;;5060984;28;20809;-77
2023/03/03 02:39:25;;;;;;;0.70;0.70;;;2.70;99.90;;;;;;5055661;28;20065;-77
2023/03/03 02:41:57;;;;;;;0.70;0.70;;;2.70;99.90;;;;;;5057717;28;20110;-77
2023/03/03 02:44:26;;;;;;;0.70;0.70;;;2.60;99.90;;;;;;5058720;28;20117;-77
2023/03/03 02:46:54;;;;;;;0.73;0.73;;;2.60;99.90;;;;;;5058311;28;20052;-77
2023/03/03 02:49:29;;;;;;;0.70;0.70;;;2.70;99.90;;;;;;5064310;28;20036;-77
2023/03/03 02:51:55;;;;;;;0.70;0.70;;;2.70;99.90;;;;;;5058998;28;20501;-77
2023/03/03 02:54:23;;;;;;;0.70;0.70;;;2.50;99.90;;;;;;5061926;28;20113;-77
2023/03/03 02:56:52;;;;;;;0.70;0.70;;;2.50;99.90;;;;;;5041476;28;20052;-77
2023/03/03 02:59:18;;;;;;;0.70;0.70;;;2.60;99.90;;;;;;5054552;28;20036;-77
2023/03/03 03:01:45;;;;;;;0.70;0.70;;;2.50;99.90;;;;;;5064488;28;20059;-77
2023/03/03 03:04:14;;;;;;;0.70;0.70;;;2.60;99.90;;;;;;5058999;28;20126;-77
2023/03/03 03:06:40;;;;;;;0.73;0.73;;;2.60;99.90;;;;;;5057206;28;20108;-77
2023/03/03 03:09:07;;;;;;;0.80;0.80;;;2.60;99.90;;;;;;5062110;28;20051;-77
2023/03/03 03:11:37;;;;;;;0.70;0.70;;;2.70;99.90;;;;;;5055296;28;20056;-77
2023/03/03 03:14:05;;;;;;;0.80;0.80;;;2.60;99.90;;;;;;5060316;28;20413;-77
2023/03/03 03:16:30;;;;;;;0.80;0.80;;;2.70;99.90;;;;;;5059937;28;20040;-77
2023/03/03 03:18:56;;;;;;;0.70;0.70;;;2.50;99.90;;;;;;5057321;28;20056;-77
2023/03/03 03:21:22;;;;;;;0.75;0.75;;;2.60;99.90;;;;;;5063088;28;20520;-77
2023/03/03 03:23:48;;;;;;;0.80;0.80;;;2.60;99.90;;;;;;5059240;28;20146;-77
2023/03/03 03:26:14;;;;;;;0.70;0.70;;;2.60;99.90;;;;;;5059160;28;20056;-77
2023/03/03 03:28:40;;;;;;;0.70;0.70;;;2.70;99.90;;;;;;5063949;28;20036;-77
2023/03/03 03:31:07;;;;;;;0.70;0.70;;;2.70;99.90;;;;;;5063639;28;20048;-77
2023/03/03 03:33:33;;;;;;;0.80;0.80;;;2.60;99.90;;;;;;5062303;28;20047;-76
2023/03/03 03:35:59;;;;;;;0.70;0.70;;;2.70;99.90;;;;;;5061887;28;20535;-77
2023/03/03 03:38:26;;;;;;;0.70;0.70;;;2.70;99.90;;;;;;5060408;28;20500;-77
2023/03/03 03:40:52;;;;;;;0.80;0.80;;;2.40;99.90;;;;;;5063576;28;20044;-77
2023/03/03 03:43:18;;;;;;;0.80;0.80;;;2.50;99.90;;;;;;5062351;28;20062;-77
2023/03/03 03:45:44;;;;;;;0.80;0.80;;;2.60;99.90;;;;;;5061689;28;20052;-77
2023/03/03 03:48:11;;;;;;;0.80;0.80;;;2.70;99.90;;;;;;5056976;28;20048;-77
2023/03/03 03:50:37;;;;;;;0.80;0.80;;;2.70;99.90;;;;;;5060396;28;20048;-77
2023/03/03 03:53:04;;;;;;;0.75;0.75;;;2.60;99.90;;;;;;5063970;28;20050;-77
2023/03/03 03:55:29;;;;;;;0.80;0.80;;;2.70;99.90;;;;;;5062321;28;20048;-77
2023/03/03 03:57:56;;;;;;;0.80;0.80;;;2.70;99.90;;;;;;5055943;28;20094;-77
2023/03/03 04:00:22;;;;;;;0.80;0.80;;;2.60;99.90;;;;;;5063512;28;20580;-77
2023/03/03 04:02:48;;;;;;;0.80;0.80;;;2.70;99.90;;;;;;5065265;28;20048;-77
2023/03/03 04:05:13;;;;;;;0.80;0.80;;;2.60;99.90;;;;;;5061070;28;20051;-77
2023/03/03 04:07:39;;;;;;;0.80;0.80;;;2.50;99.90;;;;;;5061021;28;20044;-77
2023/03/03 04:10:05;;;;;;;0.80;0.80;;;2.50;99.90;;;;;;5064402;28;20420;-77
2023/03/03 04:12:37;;;;;;;0.80;0.80;;;2.40;99.90;;;;;;5063550;28;20051;-77
2023/03/03 04:15:05;;;;;;;0.80;0.80;;;2.50;99.90;;;;;;5063953;28;20660;-77
2023/03/03 04:17:31;;;;;;;0.80;0.80;;;2.70;99.90;;;;;;5065507;28;20052;-77
2023/03/03 04:19:57;;;;;;;0.77;0.77;;;2.60;99.90;;;;;;5065097;28;20137;-77
2023/03/03 04:22:23;;;;;;;0.70;0.70;;;2.60;99.90;;;;;;5068773;28;20493;-77
2023/03/03 04:24:48;;;;;;;0.70;0.70;;;2.40;99.90;;;;;;5065068;28;20109;-77
2023/03/03 04:27:14;;;;;;;0.70;0.70;;;2.40;99.90;;;;;;5070695;28;20405;-77
2023/03/03 04:29:40;;;;;;;0.70;0.70;;;2.40;99.90;;;;;;5059198;28;20776;-77
2023/03/03 04:32:06;;;;;;;0.80;0.80;;;2.60;99.90;;;;;;5063882;28;20055;-77
2023/03/03 04:34:32;;;;;;;0.70;0.70;;;2.60;99.90;;;;;;5063460;28;20101;-77
2023/03/03 04:36:58;;;;;;;0.80;0.80;;;2.30;99.90;;;;;;5059804;28;20040;-77
2023/03/03 04:39:24;;;;;;;1.48;1.42;;;2.50;99.90;;;;;;5058571;28;20047;-77
2023/03/03 04:41:49;;;;;;;0.70;0.70;;;2.50;99.90;;;;;;5064552;28;20051;-77
2023/03/03 04:44:15;;;;;;;0.70;0.70;;;2.40;99.90;;;;;;5066220;28;20763;-77
2023/03/03 04:46:41;;;;;;;0.80;0.80;;;2.60;99.90;;;;;;5060422;28;20528;-77
2023/03/03 04:49:07;;;;;;;0.70;0.70;;;2.30;99.90;;;;;;5066039;28;20094;-77
2023/03/03 04:51:33;;;;;;;0.70;0.70;;;2.40;99.90;;;;;;5064556;28;20055;-77
2023/03/03 04:53:59;;;;;;;0.70;0.70;;;2.50;99.90;;;;;;5064009;28;20086;-77
2023/03/03 04:56:27;;;;;;;0.70;0.70;;;2.60;99.90;;;;;;5061184;28;20573;-77
2023/03/03 04:58:53;;;;;;;0.70;0.70;;;2.20;99.90;;;;;;5044553;28;21936;-77
2023/03/03 05:01:18;;;;;;;0.80;0.80;;;2.30;99.90;;;;;;5066163;28;20047;-77
2023/03/03 05:03:44;;;;;;;0.80;0.80;;;2.30;99.90;;;;;;5067561;28;20059;-77
2023/03/03 05:06:10;;;;;;;0.70;0.70;;;2.50;99.90;;;;;;5063651;28;20036;-77
2023/03/03 05:08:36;;;;;;;0.70;0.70;;;2.40;99.90;;;;;;5062516;28;20105;-77
2023/03/03 05:11:02;;;;;;;0.70;0.70;;;2.70;99.90;;;;;;5064791;28;20491;-77
2023/03/03 05:13:28;;;;;;;0.70;0.70;;;2.30;99.90;;;;;;5073127;28;20040;-77
2023/03/03 05:15:55;;;;;;;0.70;0.70;;;2.60;99.90;;;;;;5063174;28;20596;-77
2023/03/03 05:18:22;;;;;;;0.70;0.70;;;2.60;99.90;;;;;;5059898;28;20048;-77
2023/03/03 05:20:49;;;;;;;0.80;0.80;;;2.70;99.90;;;;;;5058447;28;20057;-78
2023/03/03 05:23:15;;;;;;;0.73;0.73;;;2.50;99.90;;;;;;5062774;28;20052;-78
2023/03/03 05:25:41;;;;;;;0.80;0.80;;;2.50;99.90;;;;;;5060651;28;20058;-77
2023/03/03 05:28:08;;;;;;;0.70;0.70;;;2.70;99.90;;;;;;5055272;28;20044;-77
2023/03/03 05:30:34;;;;;;;0.75;0.75;;;2.60;99.90;;;;;;5061492;28;20048;-77
2023/03/03 05:33:00;;;;;;;0.70;0.70;;;2.70;99.90;;;;;;5079415;28;20607;-77
2023/03/03 05:35:26;;;;;;;0.70;0.70;;;2.50;99.90;;;;;;5072063;28;20044;-77
2023/03/03 05:37:51;;;;;;;0.80;0.80;;;2.70;99.90;;;;;;5074931;28;20156;-77
2023/03/03 05:40:17;;;;;;;0.70;0.70;;;2.70;99.90;;;;;;5075975;28;20040;-77
2023/03/03 05:42:43;;;;;;;0.80;0.80;;;2.70;99.90;;;;;;5074843;28;20184;-77
2023/03/03 05:45:10;;;;;;;0.70;0.70;;;2.50;99.90;;;;;;5078586;28;20040;-77
2023/03/03 05:47:36;;;;;;;0.70;0.70;;;2.60;99.90;;;;;;5075300;28;20044;-77
2023/03/03 05:50:02;;;;;;;0.70;0.70;;;2.50;99.90;;;;;;5077786;28;20043;-77
2023/03/03 05:52:28;;;;;;;0.70;0.70;;;2.80;99.90;;;;;;5079230;28;20066;-78
2023/03/03 05:54:53;;;;;;;0.70;0.70;;;2.60;99.90;;;;;;5078686;28;20371;-77
2023/03/03 05:57:19;;;;;;;0.70;0.70;;;2.60;99.90;;;;;;5077854;28;20135;-77
2023/03/03 05:59:45;;;;;;;0.70;0.70;;;2.70;99.90;;;;;;5071955;28;20055;-77
2023/03/03 06:02:10;;;;;;;0.80;0.80;;;2.80;99.90;;;;;;5080246;28;20039;-77
2023/03/03 06:04:36;;;;;;;0.73;0.73;;;2.50;99.90;;;;;;5077636;28;20150;-77
2023/03/03 06:07:02;;;;;;;0.70;0.70;;;2.50;99.90;;;;;;5074538;28;20048;-77
2023/03/03 06:09:28;;;;;;;0.70;0.70;;;2.70;99.90;;;;;;5076906;28;20133;-77
2023/03/03 06:11:54;;;;;;;0.70;0.70;;;2.80;99.90;;;;;;5081275;28;20040;-78
2023/03/03 06:14:20;;;;;;;0.70;0.70;;;2.50;99.90;;;;;;5079628;28;20067;-77
2023/03/03 06:16:47;;;;;;;0.70;0.70;;;2.60;99.90;;;;;;5069507;28;20039;-77
2023/03/03 06:19:13;;;;;;;0.80;0.80;;;2.90;99.90;;;;;;5075953;28;20060;-77
2023/03/03 06:21:39;;;;;;;0.80;0.80;;;2.60;99.90;;;;;;5075837;28;20097;-77
2023/03/03 06:24:05;;;;;;;0.80;0.80;;;2.70;99.90;;;;;;5079575;28;20048;-77
2023/03/03 06:26:32;;;;;;;0.70;0.70;;;2.60;99.90;;;;;;5075106;28;20825;-78
2023/03/03 06:28:58;;;;;;;0.70;0.70;;;2.60;99.90;;;;;;5075170;28;20497;-77
2023/03/03 06:31:24;;;;;;;0.70;0.70;;;2.90;99.90;;;;;;5076911;28;20057;-77
2023/03/03 06:33:50;;;;;;;0.70;0.70;;;2.90;99.90;;;;;;5078341;28;20044;-78
2023/03/03 06:36:17;;;;;;;0.75;0.75;;;2.90;99.90;;;;;;5078654;28;20044;-77
2023/03/03 06:38:43;;;;;;;0.70;0.70;;;2.80;99.90;;;;;;5077608;28;20505;-77
2023/03/03 06:41:09;;;;;;;0.80;0.80;;;3.00;99.90;;;;;;5077707;27;20050;-77
2023/03/03 06:43:35;;;;;;;0.70;0.70;;;2.90;99.90;;;;;;5078302;28;20043;-77
2023/03/03 06:46:02;;;;;;;0.80;0.80;;;2.70;99.90;;;;;;5077090;28;20061;-77
2023/03/03 06:48:29;;;;;;;0.70;0.70;;;2.70;99.90;;;;;;5073814;28;20556;-78
2023/03/03 06:50:55;;;;;;;0.70;0.70;;;3.00;99.90;;;;;;5075669;28;20047;-78
2023/03/03 06:53:21;;;;;;;0.77;0.77;;;2.80;99.90;;;;;;5078708;28;20125;-78
2023/03/03 06:55:47;;;;;;;0.70;0.70;;;3.00;99.90;;;;;;5076831;28;20509;-77
2023/03/03 06:58:20;;;;;;;0.70;0.70;;;2.90;99.90;;;;;;5071564;28;20055;-76
2023/03/03 07:00:59;;;;;;;0.70;0.70;;;3.00;99.90;;;;;;5076199;28;20051;-77
2023/03/03 07:03:33;;;;;;;0.80;0.80;;;2.70;99.90;;;;;;5076170;28;20074;-78
2023/03/03 07:06:00;;;;;;;0.70;0.70;;;2.90;99.90;;;;;;5073809;28;20073;-77
2023/03/03 07:08:29;;;;;;;0.70;0.70;;;2.90;99.90;;;;;;5075262;28;20040;-77
2023/03/03 07:10:59;;;;;;;0.70;0.70;;;3.10;99.90;;;;;;5071209;28;20059;-77
2023/03/03 07:13:27;;;;;;;0.70;0.70;;;3.30;99.90;;;;;;5073699;28;20048;-77
2023/03/03 07:15:55;;;;;;;0.70;0.70;;;3.30;99.90;;;;;;5074617;28;20040;-77
2023/03/03 07:18:32;;;;;;;0.70;0.70;;;3.40;99.90;;;;;;5076643;28;20058;-77
2023/03/03 07:21:04;;;;;;;0.80;0.80;;;3.40;99.90;;;;;;5076214;28;20126;-76
2023/03/03 07:23:41;;;;;;;0.75;0.75;;;3.40;99.90;;;;;;5077469;28;20047;-77
2023/03/03 07:26:16;;;;;;;0.70;0.70;;;3.40;99.90;;;;;;5071434;28;20104;-77
2023/03/03 07:28:43;;;;;;;0.80;0.80;;;3.20;99.90;;;;;;5076042;28;20499;-77
2023/03/03 07:31:26;;;;;;;0.80;0.80;;;3.10;99.90;;;;;;5079091;28;20428;-77
2023/03/03 07:33:53;;;;;;;0.70;0.70;;;3.40;99.90;;;;;;5073012;28;20071;-77
2023/03/03 07:36:28;;;;;;;0.70;0.70;;;3.20;99.90;;;;;;5072821;28;20035;-77
2023/03/03 07:38:59;;;;;;;0.70;0.70;;;3.20;99.90;;;;;;5072846;28;20052;-77
2023/03/03 07:41:25;;;;;;;0.70;0.70;;;3.40;99.90;;;;;;5078404;28;20040;-77
2023/03/03 07:43:53;;;;;;;0.70;0.70;;;3.50;99.90;;;;;;5071589;28;20052;-77
2023/03/03 07:46:37;;;;;;;0.70;0.70;;;3.50;99.90;;;;;;5074034;28;20043;-77
2023/03/03 07:49:11;;;;;;;;;;;3.40;99.90;;;;;;5054568;28;20071;-77
2023/03/03 07:51:42;;;;;;;0.70;0.70;;;3.50;99.90;;;;;;5076876;28;19966;-77
2023/03/03 07:54:34;;;;;;;0.70;0.70;;;3.80;99.90;;;;;;5080198;28;20101;-77
2023/03/03 07:57:23;;;;;;;0.70;0.70;;;3.70;99.90;;;;;;5072747;28;20051;-77
2023/03/03 07:59:49;;;;;;;0.70;0.70;;;3.70;99.90;;;;;;5065693;28;20113;-77
2023/03/03 08:02:47;;;;;;;0.70;0.70;;;3.90;99.90;;;;;;5077738;28;20105;-77
2023/03/03 08:05:38;;;;;;;0.70;0.70;;;3.90;99.90;;;;;;5072888;28;20409;-77
2023/03/03 08:08:29;;;;;;;0.70;0.70;;;4.10;99.90;;;;;;5070908;28;20085;-77
2023/03/03 08:11:00;;;;;;;0.70;0.70;;;4.10;99.90;;;;;;5074047;28;20097;-77
2023/03/03 08:13:38;;;;;;;0.70;0.70;;;4.30;99.90;;;;;;5079514;28;20051;-77
2023/03/03 08:16:10;;;;;;;0.60;0.60;;;4.10;99.90;;;;;;5069999;28;20370;-77
2023/03/03 08:18:48;;;;;;;0.60;0.60;;;4.30;99.90;;;;;;5073976;28;20040;-77
2023/03/03 08:21:17;;;;;;;0.70;0.70;;;4.50;99.90;;;;;;5079087;28;20504;-77
2023/03/03 08:23:43;;;;;;;0.70;0.70;;;4.80;99.90;;;;;;5077649;28;20044;-77
2023/03/03 08:26:11;;;;;;;0.60;0.60;;;4.60;99.90;;;;;;5072047;28;20366;-77
2023/03/03 08:28:37;;;;;;;0.70;0.70;;;4.50;99.90;;;;;;5077830;28;20551;-77
2023/03/03 08:31:03;;;;;;;0.60;0.60;;;4.50;99.90;;;;;;5073219;28;20120;-77
2023/03/03 08:33:29;;;;;;;0.70;0.70;;;4.50;99.90;;;;;;5077706;28;20067;-77
2023/03/03 08:35:54;;;;;;;0.60;0.60;;;4.60;99.90;;;;;;5076086;28;20055;-77
2023/03/03 08:38:21;;;;;;;0.68;0.68;;;4.80;99.90;;;;;;5077880;28;20059;-77
2023/03/03 08:40:47;;;;;;;0.70;0.70;;;4.90;99.90;;;;;;5078589;28;20113;-78
2023/03/03 08:43:16;;;;;;;0.60;0.60;;;5.10;99.90;;;;;;5071620;28;20048;-77
2023/03/03 08:45:46;;;;;;;0.70;0.70;;;5.10;99.90;;;;;;5079198;28;20047;-77
2023/03/03 08:48:12;;;;;;;0.70;0.70;;;5.10;99.90;;;;;;5082464;28;20055;-77
2023/03/03 08:50:38;;;;;;;0.70;0.70;;;5.20;99.90;;;;;;5082786;28;20039;-78
2023/03/03 08:53:04;;;;;;;0.70;0.70;;;4.90;99.90;;;;;;5083346;28;20074;-77
2023/03/03 08:55:30;;;;;;;0.70;0.70;;;4.90;99.90;;;;;;5078594;28;20060;-77
2023/03/03 08:57:56;;;;;;;0.70;0.70;;;4.90;99.90;;;;;;5079259;28;20035;-77
2023/03/03 09:00:23;;;;;;;0.70;0.70;;;5.20;99.90;;;;;;5082885;28;20150;-77
2023/03/03 09:02:51;;;;;;;0.60;0.60;;;5.30;99.90;;;;;;5086017;28;20044;-77
2023/03/03 09:05:18;;;;;;;0.60;0.60;;;5.30;99.90;;;;;;5071851;28;21621;-77
2023/03/03 09:07:44;;;;;;;0.70;0.70;;;5.40;99.90;;;;;;5080608;28;20048;-77
2023/03/03 09:10:13;;;;;;;0.65;0.65;;;5.30;99.90;;;;;;5070944;28;20070;-77
2023/03/03 09:12:42;;;;;;;0.60;0.60;;;5.60;99.90;;;;;;5080649;28;20052;-77
2023/03/03 09:15:21;;;;;;;0.60;0.60;;;5.80;99.90;;;;;;5086846;28;20211;-77
2023/03/03 09:17:48;;;;;;;0.60;0.60;;;6.20;99.90;;;;;;5082633;28;20055;-77
2023/03/03 09:20:17;;;;;;;0.60;0.60;;;6.00;99.90;;;;;;5086776;28;20052;-77
2023/03/03 09:22:44;;;;;;;0.60;0.60;;;6.30;99.90;;;;;;5085102;28;20032;-77
2023/03/03 09:25:33;;;;;;;0.60;0.60;;;6.80;99.90;;;;;;5083664;28;20104;-77
2023/03/03 09:28:01;;;;;;;0.60;0.60;;;7.10;99.90;;;;;;5081938;28;20519;-77
2023/03/03 09:30:38;;;;;;;0.70;0.70;;;7.10;99.90;;;;;;5085593;28;20117;-77
2023/03/03 09:33:39;;;;;;;0.60;0.60;;;6.90;99.90;;;;;;5075133;28;20047;-77
2023/03/03 09:36:24;;;;;;;0.60;0.60;;;6.80;99.90;;;;;;5081088;28;20082;-77
2023/03/03 09:38:50;;;;;;;0.60;0.60;;;7.70;99.90;;;;;;5082664;28;20036;-77
2023/03/03 09:41:47;;;;;;;0.60;0.60;;;6.40;99.90;;;;;;5078290;28;20058;-77
2023/03/03 09:44:18;;;;;;;0.60;0.60;;;7.00;99.90;;;;;;5076109;28;20044;-77
2023/03/03 09:47:09;;;;;;;0.60;0.60;;;7.30;99.90;;;;;;5075336;28;20044;-77
2023/03/03 09:49:56;;;;;;;0.60;0.60;;;7.40;99.90;;;;;;5075564;28;20043;-77
2023/03/03 09:52:34;;;;;;;0.60;0.60;;;7.70;99.90;;;;;;5076443;28;20297;-77
2023/03/03 09:55:21;;;;;;;0.60;0.60;;;7.60;99.90;;;;;;5073867;28;20048;-77
2023/03/03 09:57:50;;;;;;;0.60;0.60;;;8.00;99.90;;;;;;5069340;28;21935;-77
2023/03/03 10:00:40;;;;;;;0.60;0.60;;;8.10;99.90;;;;;;5087504;28;20512;-77
2023/03/03 10:03:47;;;;;;;0.60;0.60;;;8.10;99.90;;;;;;5078771;28;20708;-76
2023/03/03 10:06:27;;;;;;;0.60;0.60;;;8.30;99.90;;;;;;5070525;28;20059;-77
2023/03/03 10:09:26;;;;;;;0.60;0.60;;;8.40;99.90;;;;;;5079860;28;20930;-77
2023/03/03 10:12:04;;;;;;;0.60;0.60;;;8.90;99.90;;;;;;5075342;28;20067;-77
2023/03/03 10:14:48;;;;;;;0.60;0.60;;;9.20;99.90;;;;;;5078617;28;20062;-76
2023/03/03 10:17:36;;;;;;;0.60;0.60;;;9.40;99.90;;;;;;5071191;28;20417;-76
2023/03/03 10:20:20;;;;;;;0.60;0.60;;;9.60;99.90;;;;;;5072528;28;20482;-77
2023/03/03 10:23:25;;;;;;;0.60;0.60;;;9.90;99.90;;;;;;5067299;28;20087;-77
2023/03/03 10:26:15;;;;;;;0.60;0.60;;;9.90;99.90;;;;;;5056049;28;20051;-77
2023/03/03 10:28:41;;;;;;;0.60;0.60;;;9.50;99.90;;;;;;5070521;28;20488;-77
2023/03/03 10:31:27;;;;;;;0.60;0.60;;;9.60;99.90;;;;;;5072379;28;20059;-77
2023/03/03 10:34:09;;;;;;;0.60;0.60;;;9.50;99.90;;;;;;5072016;28;20059;-77
2023/03/03 10:36:47;;;;;;;0.60;0.60;;;9.20;99.90;;;;;;5067559;28;20138;-77
2023/03/03 10:39:32;;;;;;;0.60;0.60;;;9.20;99.90;;;;;;5073581;28;20134;-76
2023/03/03 10:42:16;;;;;;;0.60;0.60;;;9.20;99.90;;;;;;5076686;28;20635;-76
2023/03/03 10:44:55;;;;;;;0.60;0.60;;;9.30;99.90;;;;;;5066841;28;20040;-77
2023/03/03 10:47:34;;;;;;;0.50;0.50;;;9.30;99.90;;;;;;5068797;28;20096;-77
2023/03/03 10:50:14;;;;;;;0.60;0.60;;;9.20;99.90;;;;;;5073162;28;20052;-77
2023/03/03 10:52:45;;;;;;;0.60;0.60;;;8.80;99.90;;;;;;5076277;28;20121;-77
2023/03/03 10:55:49;;;;;;;0.50;0.50;;;8.80;99.90;;;;;;5074765;28;20048;-77
2023/03/03 10:58:23;;;;;;;0.60;0.60;;;8.50;99.90;;;;;;5069224;28;20062;-77
2023/03/03 11:01:13;;;;;;;0.60;0.60;;;8.20;99.90;;;;;;5057717;28;20178;-77
2023/03/03 11:03:49;;;;;;;0.60;0.60;;;8.10;99.90;;;;;;5072535;28;20573;-77
2023/03/03 11:06:30;;;;;;;0.60;0.60;;;8.20;99.90;;;;;;5073884;28;20059;-76
2023/03/03 11:09:05;;;;;;;0.60;0.60;;;8.10;99.90;;;;;;5074438;28;20048;-76
2023/03/03 11:11:57;;;;;;;0.60;0.60;;;8.10;99.90;;;;;;5075127;28;20402;-77
2023/03/03 11:14:34;;;;;;;0.50;0.50;;;8.20;99.90;;;;;;5077980;28;20050;-76
2023/03/03 11:17:12;;;;;;;0.60;0.60;;;8.30;99.90;;;;;;5072698;28;20048;-77
2023/03/03 11:20:03;;;;;;;0.52;0.52;;;8.30;99.90;;;;;;5070411;28;20044;-77
2023/03/03 11:22:57;;;;;;;0.60;0.60;;;8.40;99.90;;;;;;5075665;28;20684;-77
2023/03/03 11:25:57;;;;;;;0.60;0.60;;;8.50;99.90;;;;;;5077011;28;20886;-77
2023/03/03 11:28:39;;;;;;;0.60;0.60;;;8.40;99.90;;;;;;5078978;28;20282;-77
2023/03/03 11:31:40;;;;;;;0.57;0.57;;;8.60;99.90;;;;;;5074773;28;20120;-77
2023/03/03 11:34:12;;;;;;;0.50;0.50;;;8.70;99.90;;;;;;5066015;28;20044;-77
2023/03/03 11:37:03;;;;;;;0.60;0.60;;;8.50;99.90;;;;;;5073081;28;20051;-76
2023/03/03 11:39:29;;;;;;;0.60;0.60;;;8.70;99.90;;;;;;5041458;28;20044;-77
2023/03/03 11:42:31;;;;;;;0.60;0.60;;;8.80;99.90;;;;;;5068910;28;20056;-77
2023/03/03 11:45:05;;;;;;;0.60;0.60;;;8.80;99.90;;;;;;5072191;28;20400;-77
2023/03/03 11:47:38;;;;;;;0.60;0.60;;;8.40;99.90;;;;;;5074869;28;20044;-76
2023/03/03 11:50:03;;;;;;;0.60;0.60;;;8.70;99.90;;;;;;5060384;28;20040;-77
2023/03/03 11:52:47;;;;;;;0.60;0.60;;;8.70;99.90;;;;;;5052610;28;20355;-76
2023/03/03 11:55:27;;;;;;;1.38;1.30;;;8.40;99.90;;;;;;5065188;28;20135;-77
2023/03/03 11:58:45;;;;;;;0.57;0.57;;;8.30;99.90;;;;;;5069867;28;20121;-77
2023/03/03 12:01:34;;;;;;;0.60;0.60;;;8.30;99.90;;;;;;5061502;28;20532;-77
2023/03/03 12:04:17;;;;;;;0.60;0.60;;;8.20;99.90;;;;;;5078299;28;20552;-76
2023/03/03 12:07:20;;;;;;;0.60;0.60;;;8.10;99.90;;;;;;5077307;28;20614;-76
2023/03/03 12:09:49;;;;;;;0.60;0.60;;;8.20;99.90;;;;;;5077169;28;20047;-77
2023/03/03 12:12:22;;;;;;;0.60;0.60;;;7.80;99.90;;;;;;5077967;28;20052;-77
2023/03/03 12:14:57;;;;;;;0.60;0.60;;;8.00;99.90;;;;;;5076922;28;20036;-77
2023/03/03 12:17:44;;;;;;;0.60;0.60;;;8.10;99.90;;;;;;5072347;28;20047;-77
2023/03/03 12:20:21;;;;;;;0.60;0.60;;;8.10;99.90;;;;;;5077721;28;20732;-77
2023/03/03 12:23:17;;;;;;;0.60;0.60;;;8.20;99.90;;;;;;5075162;28;20052;-76
2023/03/03 12:25:56;;;;;;;0.60;0.60;;;8.00;99.90;;;;;;5075503;28;20040;-77
2023/03/03 12:28:28;;;;;;;0.60;0.60;;;8.10;99.90;;;;;;5074189;28;20054;-77
2023/03/03 12:31:21;;;;;;;0.60;0.60;;;8.30;99.90;;;;;;5076346;28;20185;-77
2023/03/03 12:33:47;;;;;;;0.50;0.50;;;8.40;99.90;;;;;;5077879;28;20114;-77
2023/03/03 12:36:33;;;;;;;0.60;0.60;;;8.10;99.90;;;;;;5075722;28;20048;-77
2023/03/03 12:39:14;;;;;;;0.60;0.60;;;8.40;99.90;;;;;;5076236;28;20098;-76
2023/03/03 12:41:54;;;;;;;0.60;0.60;;;8.30;99.90;;;;;;5079400;28;20044;-77
2023/03/03 12:44:33;;;;;;;0.60;0.60;;;8.40;99.90;;;;;;5080285;28;20047;-77
2023/03/03 12:47:23;;;;;;;0.60;0.60;;;8.50;99.90;;;;;;5080034;28;20591;-76
2023/03/03 12:50:08;;;;;;;0.50;0.50;;;8.80;99.90;;;;;;5077374;28;20076;-77
2023/03/03 12:53:17;;;;;;;0.60;0.60;;;8.60;99.90;;;;;;5078540;28;20044;-78
2023/03/03 12:55:59;;;;;;;0.60;0.60;;;8.90;99.90;;;;;;5024896;28;20071;-76
2023/03/03 12:58:34;;;;;;;0.60;0.60;;;9.00;99.90;;;;;;5042592;28;20060;-77
2023/03/03 13:01:12;;;;;;;0.60;0.60;;;9.00;99.90;;;;;;5061110;28;21101;-77
2023/03/03 13:03:57;;;;;;;0.60;0.60;;;8.60;99.90;;;;;;5057613;28;20044;-77
2023/03/03 13:06:30;;;;;;;0.60;0.60;;;8.60;99.90;;;;;;5056539;28;20555;-77
2023/03/03 13:09:06;;;;;;;0.60;0.60;;;8.70;99.90;;;;;;5058842;28;20594;-76
2023/03/03 13:11:34;;;;;;;0.50;0.50;;;8.90;99.90;;;;;;5058175;28;20059;-77
2023/03/03 13:14:20;;;;;;;0.60;0.60;;;8.60;99.90;;;;;;5057418;28;20055;-77
2023/03/03 13:17:24;;;;;;;0.60;0.60;;;8.40;99.90;;;;;;5054043;28;20155;-77
2023/03/03 13:19:59;;;;;;;0.60;0.60;;;8.40;99.90;;;;;;5061041;28;20510;-77
2023/03/03 13:22:48;;;;;;;0.60;0.60;;;8.40;99.90;;;;;;5056895;28;20044;-77
2023/03/03 13:25:48;;;;;;;0.60;0.60;;;8.60;99.90;;;;;;5046225;28;20117;-77
2023/03/03 13:28:22;;;;;;;0.57;0.57;;;8.90;99.90;;;;;;5049992;28;20071;-77